createdAt,value
2023-03-15T00:01:47.158Z,55.21
2023-03-15T00:04:16.380Z,55.10
2023-03-15T00:06:45.643Z,55.36
2023-03-15T00:09:15.326Z,54.50
2023-03-15T00:11:44.420Z,53.93
2023-03-15T00:14:14.080Z,54.46
2023-03-15T00:16:43.990Z,54.90
2023-03-15T00:19:13.474Z,55.29
2023-03-15T00:21:43.838Z,53.81
2023-03-15T00:24:13.161Z,53.53
2023-03-15T00:26:42.930Z,53.77
2023-03-15T00:29:14.004Z,53.13
2023-03-15T00:31:43.146Z,54.03
2023-03-15T00:34:14.295Z,55.48
2023-03-15T00:36:44.803Z,54.99
2023-03-15T00:39:16.604Z,54.31
2023-03-15T00:41:46.489Z,56.28
2023-03-15T00:44:18.709Z,56.67
2023-03-15T00:46:50.190Z,56.95
2023-03-15T00:49:19.364Z,56.25
2023-03-15T00:51:49.374Z,55.47
2023-03-15T00:54:18.456Z,54.62
2023-03-15T00:56:47.980Z,55.41
2023-03-15T00:59:17.613Z,55.12
2023-03-15T01:01:46.774Z,54.77
2023-03-15T01:04:16.462Z,56.26
2023-03-15T01:06:46.490Z,56.31
2023-03-15T01:09:16.758Z,56.46
2023-03-15T01:11:48.072Z,57.26
2023-03-15T01:14:19.385Z,57.74
2023-03-15T01:16:49.348Z,56.98
2023-03-15T01:19:19.643Z,56.99
2023-03-15T01:21:49.098Z,57.79
2023-03-15T01:24:19.795Z,58.25
2023-03-15T01:26:52.394Z,57.35
2023-03-15T01:29:21.745Z,57.57
2023-03-15T01:31:52.614Z,57.23
2023-03-15T01:34:22.530Z,57.69
2023-03-15T01:36:55.405Z,56.28
2023-03-15T01:39:31.119Z,57.64
2023-03-15T01:42:02.663Z,58.64
2023-03-15T01:44:56.337Z,58.36
2023-03-15T01:47:27.713Z,58.90
2023-03-15T01:50:07.436Z,57.67
2023-03-15T01:52:39.705Z,57.59
2023-03-15T01:55:15.981Z,58.26
2023-03-15T01:58:07.592Z,58.69
2023-03-15T02:00:41.693Z,57.80
2023-03-15T02:03:20.140Z,58.35
2023-03-15T02:06:02.410Z,58.91
2023-03-15T02:08:44.902Z,58.33
2023-03-15T02:11:20.212Z,57.88
2023-03-15T02:13:53.301Z,59.06
2023-03-15T02:16:26.120Z,59.81
2023-03-15T02:19:04.039Z,59.83
2023-03-15T02:21:49.161Z,60.18
2023-03-15T02:24:56.102Z,59.85
2023-03-15T02:27:37.090Z,60.01
2023-03-15T02:30:08.446Z,58.72
2023-03-15T02:32:38.232Z,59.11
2023-03-15T02:35:29.477Z,59.67
2023-03-15T02:37:59.957Z,60.66
2023-03-15T02:40:32.151Z,61.45
2023-03-15T02:43:11.703Z,61.54
2023-03-15T02:45:42.133Z,60.63
2023-03-15T02:48:13.525Z,60.72
2023-03-15T02:50:43.323Z,61.13
2023-03-15T02:53:17.226Z,62.61
2023-03-15T02:55:46.755Z,61.52
2023-03-15T02:58:20.299Z,60.22
2023-03-15T03:01:08.894Z,61.41
2023-03-15T03:03:41.926Z,60.58
2023-03-15T03:06:13.817Z,61.30
2023-03-15T03:08:47.513Z,61.09
2023-03-15T03:11:33.378Z,60.71
2023-03-15T03:14:05.993Z,61.64
2023-03-15T03:16:35.508Z,61.94
2023-03-15T03:19:04.923Z,60.92
2023-03-15T03:21:34.652Z,61.47
2023-03-15T03:24:07.040Z,62.41
2023-03-15T03:26:38.497Z,62.46
2023-03-15T03:29:08.124Z,61.85
2023-03-15T03:31:37.601Z,62.00
2023-03-15T03:34:10.089Z,62.62
2023-03-15T03:36:43.054Z,63.46
2023-03-15T03:39:13.738Z,63.25
2023-03-15T03:41:45.169Z,63.23
2023-03-15T03:44:15.386Z,62.13
2023-03-15T03:46:45.589Z,62.52
2023-03-15T03:49:16.155Z,63.17
2023-03-15T03:51:46.482Z,63.84
2023-03-15T03:54:17.591Z,62.80
2023-03-15T03:56:49.255Z,62.98
2023-03-15T03:59:19.161Z,63.45
2023-03-15T04:01:55.404Z,65.12
2023-03-15T04:04:26.702Z,64.83
2023-03-15T04:06:57.744Z,64.50
2023-03-15T04:09:37.843Z,63.81
2023-03-15T04:12:09.478Z,66.05
2023-03-15T04:14:40.952Z,66.04
2023-03-15T04:17:13.114Z,64.92
2023-03-15T04:19:48.054Z,65.63
2023-03-15T04:22:30.167Z,66.89
2023-03-15T04:25:27.051Z,64.77
2023-03-15T04:28:11.142Z,64.58
2023-03-15T04:30:49.234Z,65.04
2023-03-15T04:33:37.424Z,64.72
2023-03-15T04:36:30.403Z,64.81
2023-03-15T04:39:16.192Z,66.14
2023-03-15T04:42:00.167Z,65.73
2023-03-15T04:44:50.698Z,65.42
2023-03-15T04:47:37.411Z,64.36
2023-03-15T04:50:28.116Z,63.79
2023-03-15T04:53:15.108Z,65.12
2023-03-15T04:56:04.716Z,64.43
2023-03-15T04:58:46.418Z,63.95
2023-03-15T05:01:33.610Z,65.51
2023-03-15T05:04:26.611Z,65.48
2023-03-15T05:07:11.954Z,65.75
2023-03-15T05:09:59.238Z,66.54
2023-03-15T05:12:56.798Z,66.41
2023-03-15T05:15:39.894Z,65.67
2023-03-15T05:18:38.463Z,65.09
2023-03-15T05:21:11.105Z,66.27
2023-03-15T05:24:18.995Z,66.64
2023-03-15T05:26:59.458Z,65.35
2023-03-15T05:29:56.368Z,64.56
2023-03-15T05:32:45.964Z,65.13
2023-03-15T05:35:49.264Z,64.97
2023-03-15T05:38:43.973Z,66.13
2023-03-15T05:41:32.565Z,64.57
2023-03-15T05:49:02.227Z,65.94
2023-03-15T05:51:46.878Z,65.62
2023-03-15T05:54:47.194Z,65.73
2023-03-15T05:57:22.291Z,65.44
2023-03-15T06:00:15.585Z,65.41
2023-03-15T06:02:47.570Z,65.34
2023-03-15T06:05:35.766Z,64.91
2023-03-15T06:08:06.422Z,64.21
2023-03-15T06:10:37.870Z,63.37
2023-03-15T06:13:12.120Z,62.23
2023-03-15T06:15:48.002Z,61.75
2023-03-15T06:18:20.887Z,61.23
2023-03-15T06:20:51.517Z,60.73
2023-03-15T06:23:22.566Z,60.52
2023-03-15T06:25:54.477Z,60.38
2023-03-15T06:28:26.378Z,61.11
2023-03-15T06:30:58.685Z,60.99
2023-03-15T06:33:34.909Z,60.84
2023-03-15T06:36:06.894Z,60.80
2023-03-15T06:38:36.955Z,60.77
2023-03-15T06:41:09.072Z,59.65
2023-03-15T06:43:40.685Z,59.61
2023-03-15T06:46:12.816Z,59.35
2023-03-15T06:48:42.939Z,58.54
2023-03-15T06:51:14.038Z,58.34
2023-03-15T06:53:44.391Z,57.98
2023-03-15T06:56:13.721Z,57.97
2023-03-15T06:58:43.541Z,57.55
2023-03-15T07:01:16.625Z,57.52
2023-03-15T07:03:45.893Z,57.40
2023-03-15T07:06:16.845Z,56.56
2023-03-15T07:08:48.985Z,56.01
2023-03-15T07:11:22.582Z,55.57
2023-03-15T07:14:04.534Z,55.51
2023-03-15T07:16:48.455Z,55.14
2023-03-15T07:19:56.597Z,55.14
2023-03-15T07:22:27.639Z,54.34
2023-03-15T07:25:09.793Z,54.22
2023-03-15T07:27:44.636Z,53.69
2023-03-15T07:30:18.248Z,53.39
2023-03-15T07:32:47.943Z,53.89
2023-03-15T07:35:20.502Z,53.83
2023-03-15T07:37:51.856Z,53.50
2023-03-15T07:40:21.832Z,53.39
2023-03-15T07:42:54.843Z,52.74
2023-03-15T07:45:24.210Z,52.09
2023-03-15T07:47:56.576Z,52.51
2023-03-15T07:50:26.036Z,52.38
2023-03-15T07:52:56.808Z,51.90
2023-03-15T07:55:26.783Z,51.68
2023-03-15T07:57:57.136Z,51.24
2023-03-15T08:00:28.770Z,50.73
2023-03-15T08:03:00.361Z,50.42
2023-03-15T08:05:29.458Z,50.53
2023-03-15T08:07:58.756Z,49.84
2023-03-15T08:10:28.570Z,49.56
2023-03-15T08:12:59.637Z,50.13
2023-03-15T08:15:28.739Z,49.90
2023-03-15T08:18:00.101Z,49.73
2023-03-15T08:20:30.128Z,49.87
2023-03-15T08:23:00.117Z,49.96
2023-03-15T08:25:31.415Z,50.26
2023-03-15T08:28:01.337Z,50.37
2023-03-15T08:30:32.180Z,49.65
2023-03-15T08:33:03.598Z,49.74
2023-03-15T08:35:35.981Z,49.45
2023-03-15T08:38:05.177Z,49.89
2023-03-15T08:40:35.320Z,49.91
2023-03-15T08:43:07.417Z,49.58
2023-03-15T08:45:56.834Z,48.74
2023-03-15T08:48:29.707Z,48.60
2023-03-15T08:51:05.275Z,48.13
2023-03-15T08:53:34.421Z,48.28
2023-03-15T08:56:04.581Z,48.05
2023-03-15T08:58:35.214Z,47.96
2023-03-15T09:01:08.780Z,47.64
2023-03-15T09:03:38.081Z,47.73
2023-03-15T09:06:11.302Z,47.40
2023-03-15T09:08:40.631Z,47.22
2023-03-15T09:11:16.033Z,47.64
2023-03-15T09:13:47.953Z,47.42
2023-03-15T09:16:20.575Z,46.96
2023-03-15T09:18:52.059Z,46.86
2023-03-15T09:21:25.186Z,46.93
2023-03-15T09:23:55.322Z,46.57
2023-03-15T09:26:25.136Z,46.67
2023-03-15T09:28:55.278Z,46.43
2023-03-15T09:31:25.287Z,45.23
2023-03-15T09:33:55.042Z,45.07
2023-03-15T09:36:25.554Z,45.31
2023-03-15T09:38:55.456Z,45.65
2023-03-15T09:41:46.814Z,45.50
2023-03-15T09:44:33.950Z,45.39
2023-03-15T09:47:15.628Z,45.10
2023-03-15T09:50:03.473Z,44.46
2023-03-15T09:53:08.549Z,44.80
2023-03-15T09:55:38.308Z,44.37
2023-03-15T09:58:21.056Z,44.24
2023-03-15T10:00:58.798Z,44.23
2023-03-15T10:03:43.508Z,43.99
2023-03-15T10:06:23.012Z,44.57
2023-03-15T10:08:59.873Z,44.42
2023-03-15T10:12:13.737Z,44.42
2023-03-15T10:15:22.547Z,43.73
2023-03-15T10:18:28.202Z,43.91
2023-03-15T10:21:08.675Z,44.31
2023-03-15T10:23:53.986Z,44.39
2023-03-15T10:26:28.829Z,44.52
2023-03-15T10:29:14.610Z,42.70
2023-03-15T10:31:48.702Z,43.34
2023-03-15T10:34:22.487Z,43.55
2023-03-15T10:37:02.183Z,43.72
2023-03-15T10:42:35.753Z,44.12
2023-03-15T10:45:22.384Z,43.98
2023-03-15T10:48:00.282Z,44.47
2023-03-15T10:50:38.554Z,44.23
2023-03-15T10:53:16.599Z,44.02
2023-03-15T10:55:50.038Z,44.16
2023-03-15T10:58:30.661Z,43.88
2023-03-15T11:01:10.001Z,43.54
2023-03-15T11:03:43.495Z,43.12
2023-03-15T11:06:27.786Z,42.91
2023-03-15T11:09:22.541Z,42.62
2023-03-15T11:12:05.845Z,42.18
2023-03-15T11:14:42.741Z,40.66
2023-03-15T11:17:22.498Z,40.23
2023-03-15T11:20:14.818Z,39.11
2023-03-15T11:22:44.481Z,38.25
2023-03-15T11:25:18.926Z,38.47
2023-03-15T11:27:56.504Z,37.72
2023-03-15T11:30:34.401Z,36.43
2023-03-15T11:33:08.728Z,36.35
2023-03-15T11:35:49.503Z,36.08
2023-03-15T11:38:44.489Z,35.80
2023-03-15T11:41:32.833Z,36.29
2023-03-15T11:44:49.926Z,35.75
2023-03-15T11:47:27.076Z,35.46
2023-03-15T11:49:58.499Z,35.36
2023-03-15T11:52:30.112Z,35.68
2023-03-15T11:55:06.428Z,35.67
2023-03-15T11:57:40.529Z,35.90
2023-03-15T12:00:32.610Z,36.18
2023-03-15T12:03:30.838Z,36.33
2023-03-15T12:06:17.036Z,36.23
2023-03-15T12:08:54.765Z,36.18
2023-03-15T12:11:44.518Z,36.14
2023-03-15T12:14:32.577Z,35.69
2023-03-15T12:17:30.024Z,36.38
2023-03-15T12:20:43.431Z,36.41
2023-03-15T12:23:37.072Z,36.37
2023-03-15T12:26:23.041Z,36.29
2023-03-15T12:28:59.542Z,36.14
2023-03-15T12:31:46.661Z,36.16
2023-03-15T12:34:30.591Z,36.14
2023-03-15T12:37:14.611Z,36.13
2023-03-15T12:39:48.325Z,35.95
2023-03-15T12:42:30.649Z,35.73
2023-03-15T12:45:18.435Z,35.63
2023-03-15T12:47:53.057Z,35.64
2023-03-15T12:50:47.604Z,36.05
2023-03-15T12:53:44.640Z,36.31
2023-03-15T12:56:22.891Z,36.32
2023-03-15T12:59:00.371Z,36.09
2023-03-15T13:01:29.664Z,35.66
2023-03-15T13:04:00.643Z,35.56
2023-03-15T13:06:36.198Z,35.13
2023-03-15T13:09:24.341Z,34.95
2023-03-15T13:11:56.153Z,34.38
2023-03-15T13:14:44.700Z,34.06
2023-03-15T13:17:37.983Z,34.45
2023-03-15T13:20:36.073Z,34.23
2023-03-15T13:23:19.096Z,34.25
2023-03-15T13:26:06.312Z,34.29
2023-03-15T13:28:40.235Z,33.71
2023-03-15T13:31:14.647Z,34.21
2023-03-15T13:33:57.952Z,34.54
2023-03-15T13:36:46.449Z,34.33
2023-03-15T13:39:31.004Z,34.65
2023-03-15T13:42:18.590Z,35.08
2023-03-15T13:44:47.766Z,35.46
2023-03-15T13:47:26.268Z,35.36
2023-03-15T13:49:57.370Z,35.50
2023-03-15T13:52:27.195Z,35.38
2023-03-15T13:54:59.016Z,35.45
2023-03-15T13:57:30.136Z,35.88
2023-03-15T14:00:19.895Z,36.54
2023-03-15T14:02:52.884Z,37.07
2023-03-15T14:05:30.068Z,37.18
2023-03-15T14:08:04.404Z,37.27
2023-03-15T14:10:41.046Z,37.56
2023-03-15T14:13:45.286Z,37.97
2023-03-15T14:16:33.079Z,38.64
2023-03-15T14:19:20.450Z,39.32
2023-03-15T14:21:58.412Z,39.83
2023-03-15T14:24:37.076Z,40.00
2023-03-15T14:27:09.858Z,40.49
2023-03-15T14:29:46.510Z,40.72
2023-03-15T14:32:29.558Z,41.26
2023-03-15T14:35:08.558Z,41.49
2023-03-15T14:37:43.844Z,42.11
2023-03-15T14:40:21.514Z,43.10
2023-03-15T14:42:52.539Z,44.50
2023-03-15T14:45:22.797Z,45.77
2023-03-15T14:48:08.602Z,48.20
2023-03-15T14:50:48.378Z,49.07
2023-03-15T14:53:34.842Z,50.49
2023-03-15T14:56:11.071Z,51.57
2023-03-15T14:59:17.059Z,51.79
2023-03-15T15:01:57.159Z,52.78
2023-03-15T15:04:38.053Z,54.13
2023-03-15T15:07:21.975Z,53.63
2023-03-15T15:10:02.710Z,55.42
2023-03-15T15:12:48.540Z,55.88
2023-03-15T15:15:30.918Z,56.13
2023-03-15T15:18:19.078Z,56.70
2023-03-15T15:20:51.858Z,56.83
2023-03-15T15:23:58.515Z,59.30
2023-03-15T15:26:48.904Z,59.92
2023-03-15T15:29:19.834Z,60.19
2023-03-15T15:31:53.613Z,61.30
2023-03-15T15:34:32.563Z,62.03
2023-03-15T15:37:07.271Z,62.32
2023-03-15T15:39:38.889Z,62.47
2023-03-15T15:42:12.022Z,63.75
2023-03-15T15:45:01.840Z,63.78
2023-03-15T15:47:59.139Z,64.59
2023-03-15T15:50:28.989Z,64.79
2023-03-15T15:53:08.196Z,65.58
2023-03-15T15:55:46.128Z,66.18
2023-03-15T15:58:36.824Z,66.62
2023-03-15T16:01:12.991Z,66.85
2023-03-15T16:03:48.862Z,67.06
2023-03-15T16:06:36.549Z,67.58
2023-03-15T16:09:15.468Z,67.96
2023-03-15T16:11:49.319Z,68.60
2023-03-15T16:14:19.658Z,69.15
2023-03-15T16:16:55.617Z,69.91
2023-03-15T16:19:27.651Z,69.36
2023-03-15T16:22:16.930Z,70.17
2023-03-15T16:25:39.448Z,70.68
2023-03-15T16:28:12.433Z,70.64
2023-03-15T16:30:46.713Z,71.14
2023-03-15T16:33:36.077Z,71.55
2023-03-15T16:36:06.109Z,71.43
2023-03-15T16:38:38.659Z,71.91
2023-03-15T16:41:14.847Z,72.33
2023-03-15T16:43:48.664Z,72.44
2023-03-15T16:46:20.275Z,72.03
2023-03-15T16:48:49.651Z,72.10
2023-03-15T16:51:25.243Z,72.31
2023-03-15T16:54:12.621Z,72.40
2023-03-15T16:57:10.716Z,72.38
2023-03-15T17:00:06.269Z,73.02
2023-03-15T17:02:36.786Z,73.33
2023-03-15T17:05:12.700Z,73.77
2023-03-15T17:07:55.003Z,74.17
2023-03-15T17:10:33.223Z,74.31
2023-03-15T17:13:12.191Z,74.44
2023-03-15T17:15:51.040Z,74.64
2023-03-15T17:18:36.078Z,74.80
2023-03-15T17:21:07.232Z,74.88
2023-03-15T17:23:37.350Z,74.82
2023-03-15T17:26:22.518Z,74.79
2023-03-15T17:29:29.101Z,75.22
2023-03-15T17:32:17.100Z,75.17
2023-03-15T17:35:05.233Z,75.49
2023-03-15T17:37:57.202Z,75.54
2023-03-15T17:40:55.675Z,75.62
2023-03-15T17:43:28.135Z,76.12
2023-03-15T17:46:29.262Z,76.43
2023-03-15T17:49:15.684Z,76.44
2023-03-15T17:52:33.530Z,76.23
2023-03-15T17:55:17.637Z,76.13
2023-03-15T17:57:54.799Z,76.18
2023-03-15T18:00:51.372Z,76.15
2023-03-15T18:03:47.474Z,76.23
2023-03-15T18:06:34.897Z,76.33
2023-03-15T18:09:26.397Z,76.44
2023-03-15T18:12:07.407Z,76.33
2023-03-15T18:15:12.667Z,76.61
2023-03-15T18:18:34.690Z,76.38
2023-03-15T18:21:32.890Z,77.01
2023-03-15T18:24:14.383Z,76.76
2023-03-15T18:26:47.029Z,77.01
2023-03-15T18:29:32.342Z,77.36
2023-03-15T18:32:08.385Z,77.40
2023-03-15T18:34:58.916Z,77.61
2023-03-15T18:37:28.145Z,77.74
2023-03-15T18:39:57.692Z,77.37
2023-03-15T18:42:28.985Z,77.65
2023-03-15T18:44:58.462Z,77.41
2023-03-15T18:47:27.910Z,77.75
2023-03-15T18:50:09.667Z,77.55
2023-03-15T18:53:02.866Z,77.50
2023-03-15T18:55:37.009Z,77.75
2023-03-15T18:58:13.855Z,78.15
2023-03-15T19:00:43.267Z,78.08
2023-03-15T19:03:13.770Z,78.38
2023-03-15T19:05:43.608Z,78.69
2023-03-15T19:08:14.225Z,78.82
2023-03-15T19:10:48.026Z,78.79
2023-03-15T19:13:18.170Z,79.30
2023-03-15T19:15:49.436Z,79.35
2023-03-15T19:18:22.253Z,79.19
2023-03-15T19:20:55.194Z,79.91
2023-03-15T19:23:24.797Z,79.68
2023-03-15T19:25:54.210Z,79.49
2023-03-15T19:28:24.293Z,79.96
2023-03-15T19:30:54.430Z,79.86
2023-03-15T19:33:24.308Z,79.88
2023-03-15T19:35:55.373Z,80.53
2023-03-15T19:38:26.432Z,80.99
2023-03-15T19:40:58.880Z,81.17
2023-03-15T19:43:33.372Z,81.16
2023-03-15T19:46:05.719Z,81.48
2023-03-15T19:48:36.230Z,81.64
2023-03-15T19:51:05.869Z,82.00
2023-03-15T19:53:36.899Z,81.86
2023-03-15T19:56:08.329Z,82.27
2023-03-15T19:58:38.896Z,82.33
2023-03-15T20:01:13.703Z,82.66
2023-03-15T20:03:43.173Z,82.75
2023-03-15T20:06:21.915Z,82.76
2023-03-15T20:08:55.223Z,82.76
2023-03-15T20:11:29.695Z,83.00
2023-03-15T20:14:00.267Z,83.11
2023-03-15T20:16:31.273Z,83.35
2023-03-15T20:19:05.356Z,83.39
2023-03-15T20:21:44.447Z,83.15
2023-03-15T20:24:16.174Z,82.95
2023-03-15T20:26:46.606Z,83.24
2023-03-15T20:29:17.924Z,82.72
2023-03-15T20:31:51.071Z,82.85
2023-03-15T20:34:20.318Z,83.09
2023-03-15T20:36:56.752Z,83.26
2023-03-15T20:39:26.162Z,83.62
2023-03-15T20:42:05.305Z,83.30
2023-03-15T20:44:34.670Z,83.55
2023-03-15T20:47:05.314Z,83.67
2023-03-15T20:49:34.635Z,83.97
2023-03-15T20:52:05.779Z,84.08
2023-03-15T20:54:35.047Z,84.48
2023-03-15T20:57:07.561Z,84.61
2023-03-15T20:59:36.846Z,84.62
2023-03-15T21:02:09.445Z,84.16
2023-03-15T21:04:41.881Z,84.73
2023-03-15T21:07:17.318Z,84.37
2023-03-15T21:09:50.632Z,84.18
2023-03-15T21:12:25.356Z,84.17
2023-03-15T21:14:56.124Z,83.99
2023-03-15T21:17:27.203Z,83.84
2023-03-15T21:20:01.084Z,83.80
2023-03-15T21:22:53.449Z,83.57
2023-03-15T21:25:25.860Z,83.14
2023-03-15T21:27:55.892Z,83.41
2023-03-15T21:30:36.907Z,83.33
2023-03-15T21:33:09.101Z,83.34
2023-03-15T21:35:38.478Z,83.36
2023-03-15T21:38:09.209Z,83.00
2023-03-15T21:40:39.297Z,82.89
2023-03-15T21:43:16.054Z,82.99
2023-03-15T21:45:46.863Z,83.02
2023-03-15T21:48:17.724Z,83.00
2023-03-15T21:50:54.076Z,82.98
2023-03-15T21:53:27.879Z,83.04
2023-03-15T21:56:00.804Z,82.78
2023-03-15T21:58:33.794Z,83.04
2023-03-15T22:01:21.332Z,83.28
2023-03-15T22:03:53.669Z,83.45
2023-03-15T22:06:24.605Z,83.82
2023-03-15T22:08:55.951Z,83.94
2023-03-15T22:11:29.039Z,84.27
2023-03-15T22:13:58.312Z,84.50
2023-03-15T22:16:28.798Z,84.67
2023-03-15T22:18:59.373Z,84.70
2023-03-15T22:21:34.231Z,84.67
2023-03-15T22:24:14.730Z,84.77
2023-03-15T22:26:43.755Z,84.82
2023-03-15T22:29:14.678Z,84.89
2023-03-15T22:31:44.123Z,85.36
2023-03-15T22:34:14.635Z,85.34
2023-03-15T22:36:45.994Z,85.44
2023-03-15T22:39:16.556Z,85.53
2023-03-15T22:41:49.260Z,85.94
2023-03-15T22:44:23.405Z,86.03
2023-03-15T22:46:53.265Z,86.13
2023-03-15T22:49:26.125Z,86.48
2023-03-15T22:51:55.695Z,86.48
2023-03-15T22:54:30.794Z,86.37
2023-03-15T22:57:04.892Z,86.34
2023-03-15T22:59:34.598Z,86.68
2023-03-15T23:02:06.127Z,86.53
2023-03-15T23:04:36.258Z,86.72
2023-03-15T23:07:26.271Z,86.87
2023-03-15T23:09:58.059Z,86.82
2023-03-15T23:12:36.148Z,87.04
2023-03-15T23:15:08.155Z,87.34
2023-03-15T23:17:46.832Z,87.65
2023-03-15T23:20:20.266Z,87.73
2023-03-15T23:23:12.829Z,87.61
2023-03-15T23:26:07.233Z,87.90
2023-03-15T23:28:46.307Z,87.79
2023-03-15T23:31:23.213Z,87.97
2023-03-15T23:33:54.045Z,88.13
2023-03-15T23:36:25.683Z,88.22
2023-03-15T23:39:18.675Z,88.51
2023-03-15T23:42:09.059Z,88.32
2023-03-15T23:44:39.374Z,88.69
2023-03-15T23:47:26.543Z,88.51
2023-03-15T23:50:06.963Z,88.27
2023-03-15T23:52:42.851Z,88.20
2023-03-15T23:55:34.833Z,88.25
2023-03-15T23:58:26.464Z,88.45
